createdAt,value
2023-01-09T00:00:57.529Z,4.91
2023-01-09T00:01:59.682Z,4.93
2023-01-09T00:03:01.975Z,4.95
2023-01-09T00:04:04.760Z,4.95
2023-01-09T00:05:08.213Z,4.94
2023-01-09T00:06:10.461Z,4.95
2023-01-09T00:07:12.632Z,4.95
2023-01-09T00:08:15.087Z,4.97
2023-01-09T00:09:17.299Z,4.96
2023-01-09T00:10:19.518Z,4.97
2023-01-09T00:11:21.809Z,4.98
2023-01-09T00:12:24.068Z,4.97
2023-01-09T00:13:26.405Z,4.98
2023-01-09T00:14:28.594Z,4.97
2023-01-09T00:15:30.773Z,4.98
2023-01-09T00:16:32.970Z,4.99
2023-01-09T00:17:35.124Z,5.01
2023-01-09T00:18:37.446Z,5.02
2023-01-09T00:19:39.734Z,5.01
2023-01-09T00:20:41.908Z,5.02
2023-01-09T00:21:44.070Z,5.04
2023-01-09T00:22:46.332Z,5.04
2023-01-09T00:23:48.555Z,5.05
2023-01-09T00:24:50.766Z,5.06
2023-01-09T00:26:07.125Z,5.07
2023-01-09T00:27:09.297Z,5.08
2023-01-09T00:28:11.507Z,5.05
2023-01-09T00:29:13.758Z,5.07
2023-01-09T00:30:16.078Z,5.07
2023-01-09T00:31:18.952Z,5.08
2023-01-09T00:32:21.271Z,5.08
2023-01-09T00:33:28.736Z,5.08
2023-01-09T00:34:30.891Z,5.08
2023-01-09T00:35:33.781Z,5.08
2023-01-09T00:36:36.242Z,5.09
2023-01-09T00:37:38.422Z,5.10
2023-01-09T00:38:41.261Z,5.08
2023-01-09T00:39:43.611Z,5.08
2023-01-09T00:40:45.809Z,5.07
2023-01-09T00:41:52.083Z,5.10
2023-01-09T00:42:56.731Z,5.09
2023-01-09T00:44:04.676Z,5.09
2023-01-09T00:45:16.374Z,5.09
2023-01-09T00:46:22.143Z,5.08
2023-01-09T00:47:38.513Z,5.11
2023-01-09T00:48:44.499Z,5.10
2023-01-09T00:49:48.056Z,5.11
2023-01-09T00:50:51.081Z,5.09
2023-01-09T00:51:55.202Z,5.07
2023-01-09T00:53:03.306Z,5.09
2023-01-09T00:54:05.647Z,5.08
2023-01-09T00:55:08.890Z,5.08
2023-01-09T00:56:15.116Z,5.07
2023-01-09T00:57:17.452Z,5.05
2023-01-09T00:58:19.969Z,5.06
2023-01-09T00:59:22.598Z,5.05
2023-01-09T01:00:24.819Z,5.05
2023-01-09T01:01:27.124Z,5.05
2023-01-09T01:02:29.428Z,5.05
2023-01-09T01:03:31.865Z,5.05
2023-01-09T01:04:52.662Z,5.07
2023-01-09T01:06:13.258Z,5.07
2023-01-09T01:07:34.083Z,5.05
2023-01-09T01:08:36.256Z,5.06
2023-01-09T01:09:38.533Z,5.05
2023-01-09T01:10:41.079Z,5.04
2023-01-09T01:11:43.247Z,5.05
2023-01-09T01:12:46.178Z,5.05
2023-01-09T01:13:48.713Z,5.05
2023-01-09T01:14:55.045Z,5.03
2023-01-09T01:15:57.289Z,5.01
2023-01-09T01:16:59.476Z,5.03
2023-01-09T01:18:01.883Z,5.01
2023-01-09T01:19:06.903Z,5.01
2023-01-09T01:20:13.130Z,4.99
2023-01-09T01:21:15.500Z,4.99
2023-01-09T01:22:17.723Z,4.99
2023-01-09T01:23:19.912Z,4.98
2023-01-09T01:24:22.086Z,4.99
2023-01-09T01:25:24.273Z,5.00
2023-01-09T01:26:26.461Z,5.00
2023-01-09T01:27:29.089Z,5.00
2023-01-09T01:28:31.400Z,4.99
2023-01-09T01:29:33.648Z,5.01
2023-01-09T01:30:40.527Z,4.99
2023-01-09T01:31:42.821Z,4.99
2023-01-09T01:32:45.102Z,4.99
2023-01-09T01:33:47.349Z,5.00
2023-01-09T01:34:49.600Z,5.00
2023-01-09T01:36:00.113Z,4.99
2023-01-09T01:37:02.333Z,4.98
2023-01-09T01:38:04.956Z,4.97
2023-01-09T01:39:07.130Z,4.98
2023-01-09T01:40:11.083Z,4.97
2023-01-09T01:41:13.375Z,4.98
2023-01-09T01:42:15.986Z,4.96
2023-01-09T01:43:18.153Z,4.98
2023-01-09T01:44:59.350Z,4.99
2023-01-09T01:46:01.590Z,4.98
2023-01-09T01:47:03.932Z,4.96
2023-01-09T01:48:11.165Z,4.97
2023-01-09T01:49:20.341Z,4.95
2023-01-09T01:50:35.972Z,4.96
2023-01-09T01:51:44.810Z,4.96
2023-01-09T01:52:54.711Z,4.95
2023-01-09T01:54:01.889Z,4.95
2023-01-09T01:55:08.542Z,4.95
2023-01-09T01:56:16.650Z,4.97
2023-01-09T01:57:18.859Z,4.96
2023-01-09T01:58:21.079Z,4.96
2023-01-09T01:59:32.084Z,4.96
2023-01-09T02:00:39.062Z,4.96
2023-01-09T02:01:45.937Z,4.96
2023-01-09T02:02:48.474Z,4.95
2023-01-09T02:03:55.334Z,4.94
2023-01-09T02:05:00.165Z,4.94
2023-01-09T02:06:05.056Z,4.94
2023-01-09T02:07:10.283Z,4.94
2023-01-09T02:08:12.889Z,4.95
2023-01-09T02:09:18.103Z,4.92
2023-01-09T02:10:23.709Z,4.93
2023-01-09T02:11:26.860Z,4.93
2023-01-09T02:12:29.067Z,4.93
2023-01-09T02:13:33.037Z,4.94
2023-01-09T02:14:35.286Z,4.94
2023-01-09T02:16:06.827Z,4.93
2023-01-09T02:17:44.858Z,4.93
2023-01-09T02:18:54.227Z,4.94
2023-01-09T02:20:44.777Z,4.93
2023-01-09T02:22:28.558Z,4.95
2023-01-09T02:24:02.044Z,4.95
2023-01-09T02:25:27.947Z,4.95
2023-01-09T02:26:53.457Z,4.95
2023-01-09T02:28:07.387Z,4.95
2023-01-09T02:29:40.529Z,4.91
2023-01-09T02:31:06.862Z,4.90
2023-01-09T02:32:44.432Z,4.91
2023-01-09T02:34:12.405Z,4.90
2023-01-09T02:35:29.835Z,4.90
2023-01-09T02:36:53.831Z,4.90
2023-01-09T02:38:20.575Z,4.89
2023-01-09T02:39:44.611Z,4.90
2023-01-09T02:41:05.138Z,4.89
2023-01-09T02:42:19.819Z,4.90
2023-01-09T02:43:22.740Z,4.91
2023-01-09T02:44:27.985Z,4.90
2023-01-09T02:45:30.257Z,4.90
2023-01-09T02:46:32.494Z,4.90
2023-01-09T02:47:40.392Z,4.91
2023-01-09T02:48:45.214Z,4.91
2023-01-09T02:49:51.756Z,4.94
2023-01-09T02:51:32.856Z,4.95
2023-01-09T02:53:10.416Z,4.97
2023-01-09T02:54:25.680Z,4.98
2023-01-09T02:55:33.996Z,4.98
2023-01-09T02:57:02.478Z,4.99
2023-01-09T02:58:19.139Z,5.01
2023-01-09T02:59:25.438Z,5.01
2023-01-09T03:00:49.432Z,5.02
2023-01-09T03:02:21.052Z,5.02
2023-01-09T03:03:54.418Z,5.04
2023-01-09T03:05:32.149Z,5.05
2023-01-09T03:06:40.327Z,5.06
2023-01-09T03:07:49.367Z,5.06
2023-01-09T03:08:55.588Z,5.06
2023-01-09T03:10:18.447Z,5.07
2023-01-09T03:11:22.199Z,5.08
2023-01-09T03:12:28.518Z,5.09
2023-01-09T03:13:37.662Z,5.07
2023-01-09T03:14:45.879Z,5.08
2023-01-09T03:15:51.367Z,5.10
2023-01-09T03:17:03.498Z,5.10
2023-01-09T03:18:09.269Z,5.11
2023-01-09T03:19:18.302Z,5.12
2023-01-09T03:20:24.190Z,5.11
2023-01-09T03:21:27.760Z,5.12
2023-01-09T03:22:30.028Z,5.13
2023-01-09T03:23:52.767Z,5.14
2023-01-09T03:24:55.280Z,5.16
2023-01-09T03:25:57.525Z,5.15
2023-01-09T03:27:00.110Z,5.17
2023-01-09T03:28:08.101Z,5.16
2023-01-09T03:29:10.610Z,5.16
2023-01-09T03:30:13.105Z,5.18
2023-01-09T03:31:17.748Z,5.16
2023-01-09T03:32:20.205Z,5.17
2023-01-09T03:33:22.363Z,5.18
2023-01-09T03:34:24.541Z,5.18
2023-01-09T03:35:27.293Z,5.17
2023-01-09T03:36:29.519Z,5.16
2023-01-09T03:37:31.718Z,5.16
2023-01-09T03:38:34.306Z,5.16
2023-01-09T03:39:36.515Z,5.17
2023-01-09T03:40:38.777Z,5.17
2023-01-09T03:41:40.945Z,5.18
2023-01-09T03:42:43.097Z,5.17
2023-01-09T03:43:45.892Z,5.14
2023-01-09T03:44:48.132Z,5.14
2023-01-09T03:45:50.408Z,5.16
2023-01-09T03:46:52.599Z,5.16
2023-01-09T03:47:54.876Z,5.16
2023-01-09T03:48:57.054Z,5.16
2023-01-09T03:49:59.260Z,5.16
2023-01-09T03:51:01.570Z,5.16
2023-01-09T03:52:03.896Z,5.16
2023-01-09T03:53:06.087Z,5.16
2023-01-09T03:54:08.306Z,5.17
2023-01-09T03:55:10.520Z,5.17
2023-01-09T03:56:21.575Z,5.18
2023-01-09T03:57:24.387Z,5.17
2023-01-09T03:58:27.015Z,5.17
2023-01-09T03:59:29.226Z,5.18
2023-01-09T04:00:31.705Z,5.17
2023-01-09T04:01:33.973Z,5.17
2023-01-09T04:02:36.326Z,5.17
2023-01-09T04:03:39.734Z,5.16
2023-01-09T04:04:42.024Z,5.18
2023-01-09T04:05:46.842Z,5.17
2023-01-09T04:06:49.020Z,5.16
2023-01-09T04:07:51.279Z,5.16
2023-01-09T04:08:53.446Z,5.16
2023-01-09T04:09:55.937Z,5.16
2023-01-09T04:10:58.217Z,5.15
2023-01-09T04:12:00.438Z,5.16
2023-01-09T04:13:02.590Z,5.15
2023-01-09T04:14:04.744Z,5.17
2023-01-09T04:15:07.380Z,5.15
2023-01-09T04:16:09.624Z,5.16
2023-01-09T04:17:11.943Z,5.17
2023-01-09T04:18:14.915Z,5.15
2023-01-09T04:19:17.121Z,5.13
2023-01-09T04:20:19.369Z,5.14
2023-01-09T04:21:21.698Z,5.14
2023-01-09T04:22:23.905Z,5.13
2023-01-09T04:23:26.046Z,5.12
2023-01-09T04:24:28.957Z,5.12
2023-01-09T04:25:31.391Z,5.12
2023-01-09T04:26:33.587Z,5.12
2023-01-09T04:27:38.053Z,5.11
2023-01-09T04:28:40.256Z,5.12
2023-01-09T04:29:42.447Z,5.12
2023-01-09T04:30:45.956Z,5.12
2023-01-09T04:31:48.160Z,5.11
2023-01-09T04:32:52.074Z,5.12
2023-01-09T04:33:54.256Z,5.11
2023-01-09T04:34:57.840Z,5.11
2023-01-09T04:36:07.732Z,5.11
2023-01-09T04:37:10.075Z,5.11
2023-01-09T04:38:12.271Z,5.11
2023-01-09T04:39:16.986Z,5.10
2023-01-09T04:40:19.654Z,5.09
2023-01-09T04:41:40.332Z,5.08
2023-01-09T04:42:42.568Z,5.10
2023-01-09T04:43:44.859Z,5.07
2023-01-09T04:44:47.028Z,5.06
2023-01-09T04:45:51.072Z,5.07
2023-01-09T04:46:54.758Z,5.08
2023-01-09T04:47:56.903Z,5.07
2023-01-09T04:49:01.505Z,5.07
2023-01-09T04:50:03.993Z,5.07
2023-01-09T04:51:06.176Z,5.08
2023-01-09T04:52:08.367Z,5.07
2023-01-09T04:53:13.849Z,5.06
2023-01-09T04:54:16.371Z,5.06
2023-01-09T04:55:18.554Z,5.07
2023-01-09T04:56:20.826Z,5.06
2023-01-09T04:57:25.963Z,5.06
2023-01-09T04:58:29.452Z,5.05
2023-01-09T04:59:31.709Z,5.05
2023-01-09T05:00:34.007Z,5.04
2023-01-09T05:01:37.330Z,5.05
2023-01-09T05:02:40.605Z,5.04
2023-01-09T05:03:42.886Z,5.04
2023-01-09T05:04:45.156Z,5.04
2023-01-09T05:05:47.406Z,5.03
2023-01-09T05:06:49.695Z,5.02
2023-01-09T05:07:51.982Z,5.03
2023-01-09T05:08:57.012Z,5.01
2023-01-09T05:09:59.486Z,5.00
2023-01-09T05:11:01.779Z,5.01
2023-01-09T05:12:04.253Z,4.97
2023-01-09T05:13:06.456Z,5.00
2023-01-09T05:14:12.989Z,4.98
2023-01-09T05:15:15.262Z,4.98
2023-01-09T05:16:17.771Z,4.98
2023-01-09T05:17:19.983Z,4.98
2023-01-09T05:18:22.379Z,4.97
2023-01-09T05:19:24.587Z,4.97
2023-01-09T05:20:26.781Z,4.96
2023-01-09T05:21:32.083Z,4.95
2023-01-09T05:22:34.313Z,4.94
2023-01-09T05:23:36.731Z,4.93
2023-01-09T05:24:41.662Z,4.94
2023-01-09T05:25:44.371Z,4.93
2023-01-09T05:26:46.623Z,4.93
2023-01-09T05:27:48.827Z,4.93
2023-01-09T05:28:56.545Z,4.93
2023-01-09T05:29:58.840Z,4.91
2023-01-09T05:31:01.051Z,4.92
2023-01-09T05:32:03.624Z,4.94
2023-01-09T05:33:05.839Z,4.93
2023-01-09T05:34:08.049Z,4.91
2023-01-09T05:35:10.355Z,4.91
2023-01-09T05:36:12.868Z,4.90
2023-01-09T05:37:15.054Z,4.91
2023-01-09T05:38:17.452Z,4.92
2023-01-09T05:39:19.707Z,4.90
2023-01-09T05:40:24.869Z,4.90
2023-01-09T05:41:31.247Z,4.91
2023-01-09T05:42:33.393Z,4.90
2023-01-09T05:43:35.609Z,4.89
2023-01-09T05:44:38.280Z,4.90
2023-01-09T05:45:41.297Z,4.90
2023-01-09T05:46:43.479Z,4.89
2023-01-09T05:47:48.603Z,4.91
2023-01-09T05:48:52.348Z,4.91
2023-01-09T05:49:56.455Z,4.92
2023-01-09T05:50:58.671Z,4.91
2023-01-09T05:52:00.810Z,4.92
2023-01-09T05:53:03.305Z,4.92
2023-01-09T05:54:07.594Z,4.92
2023-01-09T05:55:12.008Z,4.93
2023-01-09T05:56:14.222Z,4.93
2023-01-09T05:57:16.657Z,4.94
2023-01-09T05:58:19.270Z,4.93
2023-01-09T05:59:21.495Z,4.93
2023-01-09T06:00:23.866Z,4.94
2023-01-09T06:01:29.224Z,4.93
2023-01-09T06:02:39.091Z,4.94
2023-01-09T06:03:41.394Z,4.93
2023-01-09T06:04:43.999Z,4.92
2023-01-09T06:05:46.188Z,4.92
2023-01-09T06:06:51.180Z,4.95
2023-01-09T06:07:53.481Z,4.94
2023-01-09T06:08:55.712Z,4.94
2023-01-09T06:09:57.859Z,4.94
2023-01-09T06:11:03.163Z,4.94
2023-01-09T06:12:08.369Z,4.94
2023-01-09T06:13:10.624Z,4.95
2023-01-09T06:14:13.086Z,4.94
2023-01-09T06:15:18.262Z,4.95
2023-01-09T06:16:20.579Z,4.93
2023-01-09T06:17:22.804Z,4.95
2023-01-09T06:18:32.319Z,4.94
2023-01-09T06:19:35.321Z,4.93
2023-01-09T06:20:37.484Z,4.91
2023-01-09T06:21:39.633Z,4.93
2023-01-09T06:22:45.454Z,4.93
2023-01-09T06:23:47.635Z,4.91
2023-01-09T06:24:49.903Z,4.91
2023-01-09T06:25:52.123Z,4.90
2023-01-09T06:26:54.300Z,4.90
2023-01-09T06:27:56.500Z,4.91
2023-01-09T06:29:00.920Z,4.91
2023-01-09T06:30:03.370Z,4.90
2023-01-09T06:31:05.824Z,4.91
2023-01-09T06:32:08.099Z,4.90
2023-01-09T06:33:10.329Z,4.91
2023-01-09T06:34:13.420Z,4.92
2023-01-09T06:35:20.512Z,4.91
2023-01-09T06:36:23.330Z,4.92
2023-01-09T06:37:28.318Z,4.93
2023-01-09T06:38:33.141Z,4.93
2023-01-09T06:39:35.335Z,4.92
2023-01-09T06:40:37.525Z,4.90
2023-01-09T06:41:39.821Z,4.93
2023-01-09T06:42:49.962Z,4.92
2023-01-09T06:43:52.311Z,4.91
2023-01-09T06:44:56.787Z,4.94
2023-01-09T06:45:59.126Z,4.94
2023-01-09T06:47:01.368Z,4.93
2023-01-09T06:48:03.766Z,4.94
2023-01-09T06:49:05.954Z,4.93
2023-01-09T06:50:09.549Z,4.96
2023-01-09T06:51:11.769Z,4.94
2023-01-09T06:52:14.472Z,4.95
2023-01-09T06:53:19.248Z,4.96
2023-01-09T06:54:21.791Z,4.95
2023-01-09T06:55:23.961Z,4.96
2023-01-09T06:56:26.202Z,4.95
2023-01-09T06:57:28.373Z,4.96
2023-01-09T06:58:31.316Z,4.96
2023-01-09T06:59:33.529Z,4.95
2023-01-09T07:00:36.135Z,4.96
2023-01-09T07:01:39.958Z,4.95
2023-01-09T07:02:42.333Z,4.95
2023-01-09T07:03:45.070Z,4.95
2023-01-09T07:04:47.438Z,4.96
2023-01-09T07:05:49.796Z,4.96
2023-01-09T07:06:52.059Z,4.97
2023-01-09T07:07:54.751Z,4.95
2023-01-09T07:08:56.982Z,4.97
2023-01-09T07:09:59.374Z,4.97
2023-01-09T07:11:02.463Z,4.97
2023-01-09T07:12:05.085Z,4.97
2023-01-09T07:13:07.332Z,4.98
2023-01-09T07:14:09.708Z,4.98
2023-01-09T07:15:15.004Z,4.98
2023-01-09T07:16:17.261Z,4.98
2023-01-09T07:17:19.502Z,4.97
2023-01-09T07:18:21.693Z,4.97
2023-01-09T07:19:24.067Z,4.97
2023-01-09T07:20:26.320Z,4.97
2023-01-09T07:21:28.501Z,4.97
2023-01-09T07:22:30.905Z,4.99
2023-01-09T07:23:35.922Z,4.99
2023-01-09T07:24:38.099Z,4.98
2023-01-09T07:25:42.713Z,5.00
2023-01-09T07:26:44.873Z,4.99
2023-01-09T07:27:47.632Z,5.00
2023-01-09T07:28:49.788Z,4.99
2023-01-09T07:29:53.510Z,5.00
2023-01-09T07:30:55.781Z,5.00
2023-01-09T07:31:57.984Z,5.01
2023-01-09T07:33:02.009Z,5.01
2023-01-09T07:34:08.419Z,5.01
2023-01-09T07:35:11.442Z,5.02
2023-01-09T07:36:13.729Z,5.04
2023-01-09T07:37:15.975Z,5.03
2023-01-09T07:38:18.190Z,5.04
2023-01-09T07:39:20.372Z,5.04
2023-01-09T07:40:22.939Z,5.04
2023-01-09T07:41:25.093Z,5.01
2023-01-09T07:42:27.535Z,5.05
2023-01-09T07:43:33.436Z,5.05
2023-01-09T07:44:35.606Z,5.04
2023-01-09T07:45:37.773Z,5.06
2023-01-09T07:46:40.265Z,5.05
2023-01-09T07:47:43.747Z,5.06
2023-01-09T07:48:46.399Z,5.08
2023-01-09T07:49:48.606Z,5.07
2023-01-09T07:50:50.767Z,5.08
2023-01-09T07:51:52.906Z,5.08
2023-01-09T07:52:55.385Z,5.07
2023-01-09T07:53:57.548Z,5.08
2023-01-09T07:54:59.767Z,5.08
2023-01-09T07:56:02.144Z,5.08
2023-01-09T07:57:04.390Z,5.09
2023-01-09T07:58:06.620Z,5.08
2023-01-09T07:59:08.940Z,5.08
2023-01-09T08:00:13.552Z,5.09
2023-01-09T08:01:16.280Z,5.10
2023-01-09T08:02:21.619Z,5.10
2023-01-09T08:03:23.974Z,5.11
2023-01-09T08:04:28.417Z,5.08
2023-01-09T08:05:30.655Z,5.10
2023-01-09T08:06:32.908Z,5.09
2023-01-09T08:07:35.289Z,5.10
2023-01-09T08:08:37.454Z,5.10
2023-01-09T08:09:39.717Z,5.11
2023-01-09T08:10:41.938Z,5.09
2023-01-09T08:11:44.458Z,5.10
2023-01-09T08:12:47.996Z,5.11
2023-01-09T08:13:50.230Z,5.11
2023-01-09T08:14:52.463Z,5.11
2023-01-09T08:15:54.736Z,5.12
2023-01-09T08:16:56.979Z,5.11
2023-01-09T08:17:59.361Z,5.13
2023-01-09T08:19:01.657Z,5.12
2023-01-09T08:20:04.058Z,5.12
2023-01-09T08:21:06.385Z,5.13
2023-01-09T08:22:08.577Z,5.12
2023-01-09T08:23:10.795Z,5.12
2023-01-09T08:24:13.001Z,5.11
2023-01-09T08:25:15.469Z,5.13
2023-01-09T08:26:18.596Z,5.13
2023-01-09T08:27:20.746Z,5.13
2023-01-09T08:28:25.992Z,5.15
2023-01-09T08:29:29.213Z,5.14
2023-01-09T08:30:32.226Z,5.16
2023-01-09T08:31:34.460Z,5.16
2023-01-09T08:32:37.579Z,5.15
2023-01-09T08:33:40.585Z,5.15
2023-01-09T08:34:42.863Z,5.16
2023-01-09T08:35:45.140Z,5.17
2023-01-09T08:36:47.439Z,5.19
2023-01-09T08:37:49.663Z,5.20
2023-01-09T08:38:52.033Z,5.21
2023-01-09T08:39:54.491Z,5.20
2023-01-09T08:40:56.778Z,5.22
2023-01-09T08:42:17.380Z,5.23
2023-01-09T08:43:37.949Z,5.24
2023-01-09T08:44:58.721Z,5.26
2023-01-09T08:46:21.092Z,5.24
2023-01-09T08:47:24.809Z,5.26
2023-01-09T08:48:27.011Z,5.28
2023-01-09T08:49:29.191Z,5.28
2023-01-09T08:50:31.358Z,5.28
2023-01-09T08:51:33.550Z,5.28
2023-01-09T08:52:35.821Z,5.29
2023-01-09T08:53:43.614Z,5.31
2023-01-09T08:54:45.818Z,5.33
2023-01-09T08:55:48.098Z,5.34
2023-01-09T08:56:50.294Z,5.34
2023-01-09T08:57:54.015Z,5.35
2023-01-09T08:58:56.204Z,5.35
2023-01-09T08:59:58.379Z,5.37
2023-01-09T09:01:00.555Z,5.36
2023-01-09T09:02:02.756Z,5.39
2023-01-09T09:03:05.131Z,5.41
2023-01-09T09:04:07.350Z,5.40
2023-01-09T09:05:09.761Z,5.43
2023-01-09T09:06:11.944Z,5.43
2023-01-09T09:07:14.358Z,5.43
2023-01-09T09:08:19.171Z,5.45
2023-01-09T09:09:21.368Z,5.46
2023-01-09T09:10:28.085Z,5.47
2023-01-09T09:11:30.742Z,5.49
2023-01-09T09:12:32.965Z,5.50
2023-01-09T09:13:35.144Z,5.52
2023-01-09T09:14:59.132Z,5.53
2023-01-09T09:16:01.366Z,5.54
2023-01-09T09:17:03.579Z,5.56
2023-01-09T09:18:07.254Z,5.56
2023-01-09T09:19:09.418Z,5.59
2023-01-09T09:20:12.252Z,5.60
2023-01-09T09:21:17.225Z,5.60
2023-01-09T09:22:20.056Z,5.60
2023-01-09T09:23:23.389Z,5.63
2023-01-09T09:24:25.560Z,5.65
2023-01-09T09:25:28.275Z,5.66
2023-01-09T09:26:30.480Z,5.69
2023-01-09T09:27:36.706Z,5.70
2023-01-09T09:28:39.061Z,5.71
2023-01-09T09:29:41.212Z,5.74
2023-01-09T09:30:46.094Z,5.76
2023-01-09T09:31:49.075Z,5.80
2023-01-09T09:32:51.309Z,5.83
2023-01-09T09:33:53.565Z,5.86
2023-01-09T09:34:58.148Z,5.89
2023-01-09T09:36:06.536Z,5.93
2023-01-09T09:37:08.861Z,5.95
2023-01-09T09:38:11.683Z,5.99
2023-01-09T09:39:13.939Z,6.01
2023-01-09T09:40:23.924Z,6.05
2023-01-09T09:42:20.909Z,6.09
2023-01-09T09:43:54.232Z,6.17
2023-01-09T09:45:18.351Z,6.20
2023-01-09T09:46:28.948Z,6.24
2023-01-09T09:47:59.039Z,6.30
2023-01-09T09:49:14.548Z,6.35
2023-01-09T09:50:29.172Z,6.39
2023-01-09T09:52:04.088Z,6.44
2023-01-09T09:53:15.925Z,6.49
2023-01-09T09:54:30.547Z,6.51
2023-01-09T09:55:44.859Z,6.56
2023-01-09T09:56:58.015Z,6.59
2023-01-09T09:58:07.391Z,6.62
2023-01-09T09:59:26.847Z,6.67
2023-01-09T10:00:29.910Z,6.71
2023-01-09T10:01:46.682Z,6.75
2023-01-09T10:03:34.658Z,6.80
2023-01-09T10:04:41.040Z,6.83
2023-01-09T10:05:48.356Z,6.87
2023-01-09T10:06:55.109Z,6.90
2023-01-09T10:08:15.313Z,6.93
2023-01-09T10:09:43.793Z,6.97
2023-01-09T10:10:54.113Z,7.01
2023-01-09T10:12:31.584Z,7.03
2023-01-09T10:13:52.200Z,7.07
2023-01-09T10:14:59.953Z,7.11
2023-01-09T10:16:24.136Z,7.13
2023-01-09T10:17:49.125Z,7.17
2023-01-09T10:19:03.203Z,7.20
2023-01-09T10:20:25.117Z,7.22
2023-01-09T10:21:34.197Z,7.25
2023-01-09T10:22:46.362Z,7.27
2023-01-09T10:24:15.648Z,7.29
2023-01-09T10:25:56.648Z,7.32
2023-01-09T10:27:09.901Z,7.35
2023-01-09T10:28:29.350Z,7.37
2023-01-09T10:29:46.537Z,7.39
2023-01-09T10:30:54.245Z,7.41
2023-01-09T10:32:13.378Z,7.43
2023-01-09T10:33:22.707Z,7.45
2023-01-09T10:34:51.665Z,7.47
2023-01-09T10:36:31.125Z,7.48
2023-01-09T10:37:40.370Z,7.50
2023-01-09T10:38:46.994Z,7.52
2023-01-09T10:39:55.055Z,7.52
2023-01-09T10:41:04.545Z,7.53
2023-01-09T10:42:21.946Z,7.54
2023-01-09T10:43:39.607Z,7.54
2023-01-09T10:44:53.368Z,7.56
2023-01-09T10:46:03.344Z,7.56
2023-01-09T10:47:36.790Z,7.57
2023-01-09T10:48:44.494Z,7.58
2023-01-09T10:49:49.810Z,7.58
2023-01-09T10:50:54.918Z,7.60
2023-01-09T10:52:03.449Z,7.60
2023-01-09T10:53:18.201Z,7.61
2023-01-09T10:54:23.684Z,7.60
2023-01-09T10:55:48.292Z,7.63
2023-01-09T10:57:13.182Z,7.65
2023-01-09T10:58:21.591Z,7.65
2023-01-09T10:59:24.520Z,7.68
2023-01-09T11:00:29.579Z,7.70
2023-01-09T11:01:34.683Z,7.72
2023-01-09T11:02:42.970Z,7.74
2023-01-09T11:03:45.265Z,7.75
2023-01-09T11:04:47.822Z,7.76
2023-01-09T11:05:55.199Z,7.78
2023-01-09T11:07:31.195Z,7.80
2023-01-09T11:08:42.026Z,7.82
2023-01-09T11:10:08.146Z,7.85
2023-01-09T11:11:15.165Z,7.86
2023-01-09T11:12:26.527Z,7.87
2023-01-09T11:13:33.877Z,7.91
2023-01-09T11:14:36.447Z,7.91
2023-01-09T11:15:38.642Z,7.92
2023-01-09T11:17:03.425Z,7.94
2023-01-09T11:18:20.740Z,7.97
2023-01-09T11:19:24.417Z,7.99
2023-01-09T11:20:29.174Z,7.99
2023-01-09T11:21:39.603Z,8.02
2023-01-09T11:22:45.468Z,8.03
2023-01-09T11:23:50.068Z,8.04
2023-01-09T11:25:03.674Z,8.06
2023-01-09T11:26:05.875Z,8.07
2023-01-09T11:27:14.210Z,8.10
2023-01-09T11:28:16.417Z,8.09
2023-01-09T11:29:29.422Z,8.12
2023-01-09T11:30:36.331Z,8.12
2023-01-09T11:31:40.588Z,8.14
2023-01-09T11:32:45.119Z,8.15
2023-01-09T11:33:50.009Z,8.16
2023-01-09T11:34:52.343Z,8.17
2023-01-09T11:36:01.861Z,8.19
2023-01-09T11:37:10.422Z,8.19
2023-01-09T11:38:18.261Z,8.20
2023-01-09T11:39:34.337Z,8.22
2023-01-09T11:40:48.210Z,8.24
2023-01-09T11:41:55.920Z,8.25
2023-01-09T11:43:11.754Z,8.26
2023-01-09T11:44:15.531Z,8.26
2023-01-09T11:45:20.661Z,8.27
2023-01-09T11:46:35.161Z,8.28
2023-01-09T11:47:43.554Z,8.28
2023-01-09T11:48:57.600Z,8.30
2023-01-09T11:50:16.444Z,8.31
2023-01-09T11:51:29.487Z,8.33
2023-01-09T11:52:31.687Z,8.34
2023-01-09T11:53:52.727Z,8.33
2023-01-09T11:55:03.130Z,8.35
2023-01-09T11:56:09.492Z,8.37
2023-01-09T11:57:12.700Z,8.38
2023-01-09T11:58:17.246Z,8.38
2023-01-09T11:59:26.613Z,8.40
2023-01-09T12:00:32.413Z,8.41
2023-01-09T12:01:53.293Z,8.41
2023-01-09T12:03:23.989Z,8.45
2023-01-09T12:04:41.084Z,8.47
2023-01-09T12:06:08.197Z,8.48
2023-01-09T12:07:30.569Z,8.50
2023-01-09T12:08:56.100Z,8.51
2023-01-09T12:10:23.569Z,8.54
2023-01-09T12:11:25.744Z,8.54
2023-01-09T12:12:44.816Z,8.54
2023-01-09T12:14:02.346Z,8.55
2023-01-09T12:15:28.671Z,8.55
2023-01-09T12:16:48.904Z,8.56
2023-01-09T12:17:51.037Z,8.58
2023-01-09T12:19:32.517Z,8.59
2023-01-09T12:20:58.275Z,8.60
2023-01-09T12:22:26.639Z,8.61
2023-01-09T12:23:51.203Z,8.62
2023-01-09T12:25:11.065Z,8.63
2023-01-09T12:26:28.206Z,8.64
2023-01-09T12:27:54.405Z,8.66
2023-01-09T12:29:21.449Z,8.65
2023-01-09T12:30:51.037Z,8.66
2023-01-09T12:32:27.367Z,8.69
2023-01-09T12:33:42.615Z,8.69
2023-01-09T12:35:20.348Z,8.70
2023-01-09T12:36:34.001Z,8.70
2023-01-09T12:37:57.969Z,8.72
2023-01-09T12:39:29.124Z,8.73
2023-01-09T12:40:46.242Z,8.75
2023-01-09T12:41:57.497Z,8.74
2023-01-09T12:43:14.421Z,8.75
2023-01-09T12:44:36.022Z,8.75
2023-01-09T12:45:59.783Z,8.76
2023-01-09T12:47:17.438Z,8.76
2023-01-09T12:48:40.392Z,8.76
2023-01-09T12:49:58.020Z,8.77
2023-01-09T12:51:16.181Z,8.77
2023-01-09T12:52:25.394Z,8.77
2023-01-09T12:53:32.439Z,8.77
2023-01-09T12:54:53.777Z,8.76
2023-01-09T12:56:09.515Z,8.76
2023-01-09T12:57:17.368Z,8.75
2023-01-09T12:58:32.422Z,8.74
2023-01-09T12:59:41.543Z,8.74
2023-01-09T13:00:49.405Z,8.72
2023-01-09T13:01:53.142Z,8.71
2023-01-09T13:03:12.412Z,8.72
2023-01-09T13:04:30.229Z,8.70
2023-01-09T13:05:44.445Z,8.69
2023-01-09T13:07:00.652Z,8.70
2023-01-09T13:08:17.103Z,8.69
2023-01-09T13:09:47.531Z,8.70
2023-01-09T13:10:53.312Z,8.70
2023-01-09T13:12:08.951Z,8.70
2023-01-09T13:13:17.964Z,8.68
2023-01-09T13:14:51.396Z,8.69
2023-01-09T13:16:05.138Z,8.69
2023-01-09T13:17:16.051Z,8.67
2023-01-09T13:18:47.211Z,8.67
2023-01-09T13:19:49.456Z,8.65
2023-01-09T13:20:56.675Z,8.66
2023-01-09T13:21:59.470Z,8.64
2023-01-09T13:23:04.202Z,8.65
2023-01-09T13:24:23.147Z,8.64
2023-01-09T13:25:46.515Z,8.63
2023-01-09T13:26:57.198Z,8.62
2023-01-09T13:28:05.947Z,8.62
2023-01-09T13:29:22.589Z,8.61
2023-01-09T13:30:47.393Z,8.60
2023-01-09T13:32:17.663Z,8.59
2023-01-09T13:33:33.695Z,8.59
2023-01-09T13:34:38.813Z,8.58
2023-01-09T13:35:51.489Z,8.57
2023-01-09T13:36:56.683Z,8.56
2023-01-09T13:37:58.954Z,8.55
2023-01-09T13:39:01.851Z,8.55
2023-01-09T13:40:24.700Z,8.55
2023-01-09T13:41:47.806Z,8.54
2023-01-09T13:43:12.780Z,8.54
2023-01-09T13:44:19.958Z,8.54
2023-01-09T13:45:25.908Z,8.55
2023-01-09T13:46:38.944Z,8.53
2023-01-09T13:47:41.187Z,8.52
2023-01-09T13:48:43.417Z,8.52
2023-01-09T13:49:47.772Z,8.52
2023-01-09T13:50:54.108Z,8.52
2023-01-09T13:52:03.974Z,8.51
2023-01-09T13:53:18.132Z,8.52
2023-01-09T13:55:01.224Z,8.53
2023-01-09T13:56:03.368Z,8.51
2023-01-09T13:57:18.084Z,8.51
2023-01-09T13:58:22.870Z,8.50
2023-01-09T13:59:31.142Z,8.50
2023-01-09T14:00:36.438Z,8.49
2023-01-09T14:01:42.970Z,8.47
2023-01-09T14:02:49.057Z,8.48
2023-01-09T14:04:09.402Z,8.47
2023-01-09T14:05:14.160Z,8.47
2023-01-09T14:06:17.891Z,8.46
2023-01-09T14:07:25.437Z,8.46
2023-01-09T14:08:30.451Z,8.44
2023-01-09T14:09:37.849Z,8.45
2023-01-09T14:10:43.225Z,8.43
2023-01-09T14:11:46.957Z,8.43
2023-01-09T14:12:52.076Z,8.41
2023-01-09T14:14:02.138Z,8.41
2023-01-09T14:15:05.221Z,8.41
2023-01-09T14:16:23.896Z,8.39
2023-01-09T14:17:35.461Z,8.40
2023-01-09T14:18:41.297Z,8.38
2023-01-09T14:19:44.680Z,8.38
2023-01-09T14:20:59.699Z,8.37
2023-01-09T14:22:02.660Z,8.37
2023-01-09T14:23:28.142Z,8.36
2023-01-09T14:24:39.976Z,8.36
2023-01-09T14:25:42.274Z,8.34
2023-01-09T14:26:59.021Z,8.34
2023-01-09T14:28:03.153Z,8.34
2023-01-09T14:29:36.427Z,8.33
2023-01-09T14:30:59.330Z,8.33
2023-01-09T14:32:21.234Z,8.31
2023-01-09T14:33:24.463Z,8.30
2023-01-09T14:34:37.514Z,8.29
2023-01-09T14:36:32.437Z,8.29
2023-01-09T14:37:38.864Z,8.28
2023-01-09T14:38:48.076Z,8.28
2023-01-09T14:39:51.978Z,8.28
2023-01-09T14:41:01.204Z,8.27
2023-01-09T14:42:09.454Z,8.26
2023-01-09T14:43:38.392Z,8.27
2023-01-09T14:44:53.548Z,8.26
2023-01-09T14:46:02.821Z,8.25
2023-01-09T14:47:15.037Z,8.25
2023-01-09T14:48:18.227Z,8.24
2023-01-09T14:49:43.953Z,8.24
2023-01-09T14:50:59.805Z,8.24
2023-01-09T14:52:13.377Z,8.22
2023-01-09T14:53:28.809Z,8.23
2023-01-09T14:54:36.169Z,8.21
2023-01-09T14:56:00.453Z,8.22
2023-01-09T14:57:02.928Z,8.21
2023-01-09T14:58:34.992Z,8.19
2023-01-09T14:59:39.630Z,8.20
2023-01-09T15:01:11.355Z,8.20
2023-01-09T15:02:13.735Z,8.18
2023-01-09T15:03:16.421Z,8.18
2023-01-09T15:04:47.991Z,8.18
2023-01-09T15:05:52.821Z,8.16
2023-01-09T15:06:55.149Z,8.15
2023-01-09T15:08:04.288Z,8.15